AirNav   Everest Fuels
 
 1680 users online  

3MI2 South Fox Island Airport
Northport, Michigan, USA

GOING TO NORTHPORT?


FAA INFORMATION EFFECTIVE 10 SEPTEMBER 2020

Location

FAA Identifier: 3MI2
Lat/Long: 45-23-56.9800N 085-49-48.2900W
45-23.949667N 085-49.804833W
45.3991611,-85.8300806
(estimated)
Elevation: 616 ft. / 187.8 m (surveyed)
Variation: 04W (1990)
From city: 18 miles NW of NORTHPORT, MI
Time zone: UTC -4 (UTC -5 during Standard Time)
Zip code: 49670

Airport Operations

Airport use: Private use. Permission required prior to landing
Activation date: 12/1992
Control tower: no
ARTCC: MINNEAPOLIS CENTER
FSS: LANSING FLIGHT SERVICE STATION
Attendance: UNATNDD
Wind indicator: lighted
Segmented circle: no
Lights: FOR PVASI RY 18 & RY 36; MIRL RY 18/36, CALL 248-364-2431 OR 248-867-0476.

Airport Communications

UNICOM: 122.8

Nearby radio navigation aids

NDB name  Hdg/Dist  Freq  Var  ID
CHARLEVOIX289/24.339205WCVX -.-. ...- -..-

Airport Services

Runway Information

Runway 18/36

Dimensions: 5500 x 90 ft. / 1676 x 27 m
Surface: asphalt
Runway edge lights: medium intensity
RUNWAY 18  RUNWAY 36
Traffic pattern: leftleft
Visual slope indicator: pulsating/steady burning VASI on leftpulsating/steady burning VASI on left

Airport Ownership and Management from official FAA records

Ownership: Privately-owned
Owner: MIRADA RANCH INC
7640 DIXIE HWY #100
CLARKSTON, MI 48346
Phone 248-364-2400
Manager: VICTOR INTERNATIONAL/SARAH MOORE
7640 DIXIE HWY #100
CLARKSTON, MI 48346
Phone 248-364-2400

Additional Remarks

FOR CD CTC MINNEAPOLIS ARTCC AT 651-463-5588.

Instrument Procedures

There are no published instrument procedures at 3MI2.

Some nearby airports with instrument procedures:

KSJX - Beaver Island Airport (21 nm NE)
KCVX - Charlevoix Municipal Airport (24 nm E)
KACB - Antrim County Airport (36 nm SE)
N98 - Boyne City Municipal Airport (37 nm E)
KISQ - Schoolcraft County Airport (37 nm N)
 
Loc | Ops | Rwys | IFR | FBO | Links
Com | Nav | Svcs | Stats | Notes
Area around 3MI2 (South Fox Island Airport)
 
Road maps at: MapQuest Bing Google
 
Aerial photo
WARNING: Photo may not be current or correct
Aerial photo of 3MI2 (South Fox Island Airport)
Photo taken 07-Apr-2012
looking northwest.

Do you have a better or more recent aerial photo of South Fox Island Airport that you would like to share? If so, please send us your photo.

 
Sectional chart

 
Airport distance calculator
Flying to South Fox Island Airport? Find the distance to fly.

From to 3MI2

Sunrise and sunset
Times for 22-Sep-2020
 Local
(UTC-4)
 Zulu
(UTC)
Morning civil twilight07:0311:03
Sunrise07:3311:33
Sunset19:3923:39
Evening civil twilight20:0800:08

Current date and time
Zulu (UTC)  22-Sep-2020 17:43:10
Local (UTC-4)  22-Sep-2020 13:43:10
 
METAR
KSJX 
21nm NE 
221715Z AUTO 25009KT 10SM CLR 20/13 A3010 RMK AO2 T02010126
KCVX 
24nm E 
221715Z AUTO 23006KT 10SM CLR 22/13 A3011 RMK AO2 T02190132
KACB 
37nm SE 
221715Z AUTO 19005KT 10SM CLR 22/12 A3012 RMK AO2 T02160123
KISQ 
37nm N 
221715Z AUTO 20006KT 10SM CLR 20/13 A3008 RMK AO2 T02010134
KMGN 
39nm E 
221715Z AUTO 26005KT 10SM CLR 21/12 A3010 RMK AO2 T02110128
KTVC 
41nm S 
221653Z 22006KT 10SM BKN220 23/13 A3011 RMK AO2 SLP194 T02280133
TAF
KTVC 
41nm S 
221120Z 2212/2312 21008KT P6SM SCT040 BKN150 FM221300 22008KT P6SM SCT040 FM221800 24008KT P6SM SKC FM230300 00000KT P6SM SKC
KPLN 
44nm E 
221120Z 2212/2312 22008KT P6SM SCT045 WS020/27030KT FM221400 24009KT P6SM FEW100 FM221500 25010G18KT P6SM FEW250 FM221700 25010KT P6SM SKC FM230300 00000KT P6SM SKC FM230800 00000KT 4SM BR FEW250
NOTAMs
Click for the latest NOTAMs
NOTAMs are issued by the DoD/FAA and will open in a separate window not controlled by AirNav.

 

 
 

Would you like to see your business listed on this page?

 If your business provides an interesting product or service to pilots, flight crews, aircraft, or users of the South Fox Island Airport, you should consider listing it here.  To start the listing process, click on the button below
 
Add a business
 

Other Pages about South Fox Island Airport

Update a link
 
Copyright © AirNav, LLC. All rights reserved. Privacy Policy  Contact